createdAt,value
2017-11-05T00:00:40.811Z,9.9
2017-11-05T00:03:38.352Z,9.9
2017-11-05T00:08:34.296Z,9.9
2017-11-05T00:09:33.168Z,9.9
2017-11-05T00:10:32.342Z,9.9
2017-11-05T00:14:28.998Z,9.9
2017-11-05T00:15:28.022Z,9.9
2017-11-05T00:19:24.454Z,9.9
2017-11-05T00:20:23.468Z,9.9
2017-11-05T00:26:18.672Z,9.9
2017-11-05T00:26:49.143Z,9.9
2017-11-05T00:28:16.604Z,9.9
2017-11-05T00:33:12.550Z,9.8
2017-11-05T00:35:10.945Z,9.8
2017-11-05T00:35:41.405Z,9.8
2017-11-05T00:36:11.498Z,9.8
2017-11-05T00:36:41.723Z,9.8
2017-11-05T00:43:03.695Z,9.8
2017-11-05T00:44:02.978Z,9.8
2017-11-05T00:46:01.004Z,9.9
2017-11-05T00:47:00.019Z,9.9
2017-11-05T00:47:30.484Z,9.9
2017-11-05T00:49:57.574Z,9.9
2017-11-05T00:52:55.230Z,9.9
2017-11-05T00:53:54.520Z,9.9
2017-11-05T00:57:50.946Z,9.8
2017-11-05T00:58:50.091Z,9.8
2017-11-05T01:00:48.354Z,9.8
2017-11-05T01:03:45.631Z,9.8
2017-11-05T01:06:42.784Z,9.9
2017-11-05T01:08:41.311Z,9.9
2017-11-05T01:09:40.583Z,9.9
2017-11-05T01:11:38.603Z,9.9
2017-11-05T01:15:35.388Z,9.8
2017-11-05T01:16:34.332Z,9.8
2017-11-05T01:17:33.610Z,9.8
2017-11-05T01:18:32.639Z,9.9
2017-11-05T01:19:02.971Z,9.9
2017-11-05T01:19:33.302Z,9.9
2017-11-05T01:20:03.617Z,9.9
2017-11-05T01:20:34.093Z,9.9
2017-11-05T01:21:30.460Z,9.9
2017-11-05T01:23:28.221Z,9.9
2017-11-05T01:25:26.893Z,9.9
2017-11-05T01:27:24.781Z,9.8
2017-11-05T01:44:10.302Z,9.8
2017-11-05T01:48:06.730Z,9.8
2017-11-05T01:51:04.286Z,9.8
2017-11-05T01:52:02.926Z,9.8
2017-11-05T01:53:02.576Z,9.8
2017-11-05T01:55:00.871Z,9.7
2017-11-05T01:57:58.295Z,9.7
2017-11-05T02:01:54.712Z,9.7
2017-11-05T02:02:53.983Z,9.7
2017-11-05T02:06:50.272Z,9.7
2017-11-05T02:08:48.695Z,9.7
2017-11-05T02:11:45.843Z,9.7
2017-11-05T02:12:45.481Z,9.7
2017-11-05T02:13:44.388Z,9.7
2017-11-05T02:14:43.264Z,9.7
2017-11-05T02:15:13.839Z,9.7
2017-11-05T02:15:44.530Z,9.7
2017-11-05T02:22:36.200Z,9.6
2017-11-05T02:24:34.590Z,9.6
2017-11-05T02:26:33.115Z,9.6
2017-11-05T02:32:27.817Z,9.6
2017-11-05T02:33:27.087Z,9.6
2017-11-05T02:34:26.092Z,9.6
2017-11-05T02:36:24.256Z,9.6
2017-11-05T02:37:23.532Z,9.6
2017-11-05T02:38:22.450Z,9.5
2017-11-05T02:39:21.729Z,9.5
2017-11-05T02:40:20.772Z,9.5
2017-11-05T02:42:19.191Z,9.5
2017-11-05T02:44:17.232Z,9.6
2017-11-05T02:46:15.633Z,9.5
2017-11-05T02:47:14.652Z,9.5
2017-11-05T02:51:11.458Z,9.5
2017-11-05T02:53:09.899Z,9.5
2017-11-05T02:55:07.424Z,9.5
2017-11-05T02:55:37.876Z,9.5
2017-11-05T02:57:06.078Z,9.5
2017-11-05T02:58:04.959Z,9.5
2017-11-05T02:59:03.970Z,9.4
2017-11-05T03:01:02.501Z,9.5
2017-11-05T03:05:58.193Z,9.5
2017-11-05T03:06:28.661Z,9.5
2017-11-05T03:07:56.116Z,9.5
2017-11-05T03:09:54.767Z,9.5
2017-11-05T03:10:53.640Z,9.4
2017-11-05T03:13:51.552Z,9.5
2017-11-05T03:16:48.320Z,9.4
2017-11-05T03:19:45.860Z,9.4
2017-11-05T03:23:42.384Z,9.4
2017-11-05T03:24:41.653Z,9.4
2017-11-05T03:26:39.803Z,9.4
2017-11-05T03:27:38.811Z,9.4
2017-11-05T03:29:37.602Z,9.4
2017-11-05T03:33:34.024Z,9.5
2017-11-05T03:34:32.531Z,9.5
2017-11-05T03:37:30.462Z,9.5
2017-11-05T03:38:00.701Z,9.5
2017-11-05T03:41:26.460Z,9.5
2017-11-05T03:42:25.849Z,9.5
2017-11-05T03:43:24.866Z,9.4
2017-11-05T03:45:23.281Z,9.4
2017-11-05T03:46:22.301Z,9.4
2017-11-05T03:52:16.988Z,9.5
2017-11-05T03:53:16.375Z,9.5
2017-11-05T03:54:15.661Z,9.5
2017-11-05T03:58:12.104Z,9.5
2017-11-05T04:00:10.016Z,9.5
2017-11-05T04:01:09.328Z,9.4
2017-11-05T04:04:06.372Z,9.4
2017-11-05T04:05:05.518Z,9.4
2017-11-05T04:06:04.915Z,9.4
2017-11-05T04:08:03.583Z,9.4
2017-11-05T04:10:01.480Z,9.3
2017-11-05T04:11:00.648Z,9.3
2017-11-05T04:11:59.817Z,9.3
2017-11-05T04:16:55.238Z,9.3
2017-11-05T04:18:53.508Z,9.3
2017-11-05T04:20:51.810Z,9.3
2017-11-05T04:21:51.088Z,9.3
2017-11-05T04:25:47.384Z,9.2
2017-11-05T04:26:17.347Z,9.2
2017-11-05T04:27:45.828Z,9.1
2017-11-05T04:28:44.577Z,9.1
2017-11-05T04:29:44.226Z,9.1
2017-11-05T04:30:42.873Z,9.1
2017-11-05T04:31:42.160Z,9
2017-11-05T04:32:41.172Z,9
2017-11-05T04:33:40.324Z,9
2017-11-05T04:35:38.624Z,8.9
2017-11-05T04:37:37.160Z,8.9
2017-11-05T04:38:35.817Z,8.9
2017-11-05T04:40:34.217Z,8.9
2017-11-05T04:44:30.522Z,8.8
2017-11-05T04:45:29.811Z,8.8
2017-11-05T04:46:28.824Z,8.8
2017-11-05T04:50:25.369Z,8.8
2017-11-05T04:51:24.750Z,8.7
2017-11-05T04:52:23.516Z,8.7
2017-11-05T04:55:20.942Z,8.7
2017-11-05T04:56:19.961Z,8.6
2017-11-05T04:57:18.973Z,8.6
2017-11-05T04:58:18.489Z,8.6
2017-11-05T05:00:16.517Z,8.6
2017-11-05T05:03:14.104Z,8.6
2017-11-05T05:04:13.250Z,8.7
2017-11-05T05:05:11.904Z,8.7
2017-11-05T05:06:11.559Z,8.7
2017-11-05T05:07:10.067Z,8.7
2017-11-05T05:08:09.723Z,8.6
2017-11-05T05:08:40.187Z,8.6
2017-11-05T05:10:07.753Z,8.6
2017-11-05T05:11:06.633Z,8.6
2017-11-05T05:12:06.150Z,8.6
2017-11-05T05:18:59.968Z,8.5
2017-11-05T05:20:58.165Z,8.5
2017-11-05T05:21:57.047Z,8.5
2017-11-05T05:22:56.073Z,8.4
2017-11-05T05:23:55.087Z,8.4
2017-11-05T05:24:54.237Z,8.4
2017-11-05T05:26:52.633Z,8.3
2017-11-05T05:28:51.065Z,8.3
2017-11-05T05:30:49.362Z,8.3
2017-11-05T05:31:48.511Z,8.2
2017-11-05T05:33:46.409Z,8.2
2017-11-05T05:34:45.420Z,8.2
2017-11-05T05:35:44.807Z,8.2
2017-11-05T05:36:44.091Z,8.2
2017-11-05T05:37:42.869Z,8.1
2017-11-05T05:38:42.021Z,8.1
2017-11-05T05:39:41.166Z,8.1
2017-11-05T05:40:40.317Z,8.1
2017-11-05T05:41:39.600Z,8.1
2017-11-05T05:42:38.482Z,8.1
2017-11-05T05:43:37.635Z,8
2017-11-05T05:44:36.649Z,8
2017-11-05T05:45:35.543Z,8
2017-11-05T05:46:34.824Z,8
2017-11-05T05:48:33.247Z,7.9
2017-11-05T05:49:32.395Z,7.9
2017-11-05T05:50:31.551Z,7.9
2017-11-05T05:51:30.322Z,7.9
2017-11-05T05:53:28.856Z,7.9
2017-11-05T05:54:27.875Z,7.9
2017-11-05T05:55:26.758Z,7.9
2017-11-05T05:56:26.146Z,7.8
2017-11-05T05:58:24.165Z,7.8
2017-11-05T05:59:23.444Z,7.8
2017-11-05T06:00:22.591Z,7.8
2017-11-05T06:01:21.238Z,7.8
2017-11-05T06:04:19.025Z,7.8
2017-11-05T06:06:16.920Z,7.8
2017-11-05T06:08:15.321Z,7.8
2017-11-05T06:09:14.246Z,7.8
2017-11-05T06:10:13.261Z,7.8
2017-11-05T06:11:12.405Z,7.8
2017-11-05T06:12:11.422Z,7.8
2017-11-05T06:13:10.959Z,7.8
2017-11-05T06:14:09.837Z,7.8
2017-11-05T06:15:08.988Z,7.8
2017-11-05T06:16:08.266Z,7.8
2017-11-05T06:17:07.149Z,7.8
2017-11-05T06:18:06.170Z,7.9
2017-11-05T06:19:05.456Z,7.9
2017-11-05T06:20:04.466Z,7.9
2017-11-05T06:21:03.750Z,8
2017-11-05T06:22:02.625Z,8
2017-11-05T06:25:00.042Z,8.1
2017-11-05T06:25:59.320Z,8.1
2017-11-05T06:26:58.238Z,8.1
2017-11-05T06:27:57.518Z,8.1
2017-11-05T06:28:56.678Z,8.1
2017-11-05T06:29:55.188Z,8.1
2017-11-05T06:30:54.698Z,8.2
2017-11-05T06:31:53.343Z,8.2
2017-11-05T06:32:52.628Z,8.2
2017-11-05T06:33:52.011Z,8.2
2017-11-05T06:34:51.155Z,8.2
2017-11-05T06:35:49.940Z,8.2
2017-11-05T06:36:49.317Z,8.2
2017-11-05T06:38:47.349Z,8.3
2017-11-05T06:40:45.624Z,8.3
2017-11-05T06:41:44.901Z,8.4
2017-11-05T06:43:42.800Z,8.4
2017-11-05T06:44:13.362Z,8.4
2017-11-05T06:45:41.193Z,8.5
2017-11-05T06:46:40.609Z,8.5
2017-11-05T06:47:39.261Z,8.5
2017-11-05T06:48:38.275Z,8.5
2017-11-05T06:49:37.789Z,8.5
2017-11-05T06:50:36.700Z,8.6
2017-11-05T06:51:35.720Z,8.6
2017-11-05T06:52:35.115Z,8.6
2017-11-05T06:53:34.125Z,8.6
2017-11-05T06:54:04.955Z,8.6
2017-11-05T06:54:35.277Z,8.7
2017-11-05T06:55:05.748Z,8.7
2017-11-05T06:56:31.314Z,8.8
2017-11-05T06:57:30.594Z,8.8
2017-11-05T06:58:29.615Z,8.9
2017-11-05T06:59:28.802Z,8.9
2017-11-05T07:00:27.445Z,9
2017-11-05T07:01:26.592Z,9
2017-11-05T07:03:25.261Z,9.1
2017-11-05T07:04:24.167Z,9.1
2017-11-05T07:05:23.334Z,9.1
2017-11-05T07:06:22.616Z,9.2
2017-11-05T07:07:21.394Z,9.2
2017-11-05T07:08:20.818Z,9.2
2017-11-05T07:09:19.702Z,9.2
2017-11-05T07:10:18.584Z,9.3
2017-11-05T07:11:17.881Z,9.3
2017-11-05T07:12:17.163Z,9.3
2017-11-05T07:13:16.318Z,9.3
2017-11-05T07:16:13.467Z,9.4
2017-11-05T07:17:12.349Z,9.4
2017-11-05T07:18:11.642Z,9.4
2017-11-05T07:19:10.652Z,9.4
2017-11-05T07:20:10.036Z,9.4
2017-11-05T07:21:09.181Z,9.5
2017-11-05T07:23:07.577Z,9.5
2017-11-05T07:24:06.482Z,9.5
2017-11-05T07:25:05.369Z,9.5
2017-11-05T07:26:04.516Z,9.6
2017-11-05T07:26:34.723Z,9.6
2017-11-05T07:27:05.184Z,9.6
2017-11-05T07:27:35.512Z,9.6
2017-11-05T07:28:06.212Z,9.6
2017-11-05T07:29:01.942Z,9.7
2017-11-05T07:30:00.953Z,9.7
2017-11-05T07:30:59.970Z,9.7
2017-11-05T07:31:59.759Z,9.8
2017-11-05T07:32:58.539Z,9.8
2017-11-05T07:33:57.559Z,9.9
2017-11-05T07:34:28.022Z,9.9
2017-11-05T07:35:56.121Z,10
2017-11-05T07:36:26.345Z,10
2017-11-05T07:36:56.448Z,10.1
2017-11-05T07:37:26.922Z,10.1
2017-11-05T07:37:57.148Z,10.1
2017-11-05T07:38:27.609Z,10.1
2017-11-05T07:39:52.690Z,10.1
2017-11-05T07:40:51.597Z,10.2
2017-11-05T07:42:49.770Z,10.2
2017-11-05T07:43:48.783Z,10.2
2017-11-05T07:44:47.665Z,10.2
2017-11-05T07:45:47.447Z,10.2
2017-11-05T07:46:46.217Z,10.2
2017-11-05T07:47:45.282Z,10.2
2017-11-05T07:50:42.415Z,10.2
2017-11-05T07:51:41.929Z,10.2
2017-11-05T07:52:40.961Z,10.2
2017-11-05T07:53:40.107Z,10.2
2017-11-05T07:54:39.261Z,10.2
2017-11-05T07:55:38.337Z,10.2
2017-11-05T07:56:37.503Z,10.3
2017-11-05T07:57:36.653Z,10.3
2017-11-05T07:58:35.665Z,10.4
2017-11-05T07:59:34.683Z,10.4
2017-11-05T08:00:34.001Z,10.4
2017-11-05T08:01:33.165Z,10.4
2017-11-05T08:02:32.179Z,10.4
2017-11-05T08:03:31.195Z,10.4
2017-11-05T08:04:30.345Z,10.4
2017-11-05T08:05:29.497Z,10.4
2017-11-05T08:06:28.770Z,10.4
2017-11-05T08:07:28.291Z,10.4
2017-11-05T08:08:27.250Z,10.4
2017-11-05T08:09:26.397Z,10.4
2017-11-05T08:10:25.177Z,10.4
2017-11-05T08:11:24.071Z,10.4
2017-11-05T08:12:23.493Z,10.4
2017-11-05T08:13:22.513Z,10.4
2017-11-05T08:14:21.660Z,10.4
2017-11-05T08:15:21.203Z,10.4
2017-11-05T08:16:20.080Z,10.4
2017-11-05T08:16:50.645Z,10.4
2017-11-05T08:18:18.472Z,10.4
2017-11-05T08:19:17.395Z,10.4
2017-11-05T08:20:16.654Z,10.5
2017-11-05T08:21:15.536Z,10.5
2017-11-05T08:22:14.924Z,10.5
2017-11-05T08:23:13.943Z,10.5
2017-11-05T08:24:13.094Z,10.5
2017-11-05T08:25:12.242Z,10.5
2017-11-05T08:26:11.278Z,10.5
2017-11-05T08:27:10.568Z,10.5
2017-11-05T08:28:09.582Z,10.5
2017-11-05T08:29:09.096Z,10.5
2017-11-05T08:30:07.739Z,10.5
2017-11-05T08:31:07.393Z,10.5
2017-11-05T08:32:06.304Z,10.5
2017-11-05T08:33:05.452Z,10.5
2017-11-05T08:34:04.606Z,10.5
2017-11-05T08:35:03.632Z,10.5
2017-11-05T08:37:01.663Z,10.5
2017-11-05T08:39:00.319Z,10.6
2017-11-05T08:39:59.470Z,10.6
2017-11-05T08:40:58.620Z,10.6
2017-11-05T08:41:58.044Z,10.6
2017-11-05T08:42:56.933Z,10.6
2017-11-05T08:43:56.361Z,10.6
2017-11-05T08:44:54.871Z,10.6
2017-11-05T08:45:54.531Z,10.7
2017-11-05T08:46:53.307Z,10.7
2017-11-05T08:47:52.631Z,10.7
2017-11-05T08:48:51.777Z,10.7
2017-11-05T08:49:51.053Z,10.7
2017-11-05T08:50:49.808Z,10.7
2017-11-05T08:51:48.962Z,10.8
2017-11-05T08:52:48.353Z,10.8
2017-11-05T08:53:47.126Z,10.8
2017-11-05T08:54:46.402Z,10.9
2017-11-05T08:55:45.918Z,10.9
2017-11-05T08:56:44.930Z,10.9
2017-11-05T08:57:43.943Z,10.9
2017-11-05T08:58:43.229Z,11
2017-11-05T09:00:41.758Z,11
2017-11-05T09:01:40.768Z,11
2017-11-05T09:02:39.922Z,11
2017-11-05T09:04:37.946Z,11
2017-11-05T09:05:37.090Z,11.1
2017-11-05T09:06:36.510Z,11
2017-11-05T09:07:35.524Z,11.1
2017-11-05T09:08:34.412Z,11.1
2017-11-05T09:09:33.841Z,11.1
2017-11-05T09:10:32.867Z,11.1
2017-11-05T09:11:31.882Z,11.1
2017-11-05T09:12:31.397Z,11.1
2017-11-05T09:13:01.727Z,11.1
2017-11-05T09:13:32.193Z,11.1
2017-11-05T09:14:02.927Z,11.1
2017-11-05T09:14:33.118Z,11.2
2017-11-05T09:15:28.890Z,11.2
2017-11-05T09:16:27.903Z,11.2
2017-11-05T09:17:26.946Z,11.2
2017-11-05T09:18:26.368Z,11.2
2017-11-05T09:19:25.525Z,11.2
2017-11-05T09:20:24.314Z,11.3
2017-11-05T09:21:23.336Z,11.3
2017-11-05T09:22:22.896Z,11.3
2017-11-05T09:23:23.522Z,11.3
2017-11-05T09:23:54.244Z,11.3
2017-11-05T09:25:20.056Z,11.4
2017-11-05T09:26:19.566Z,11.4
2017-11-05T09:27:18.216Z,11.4
2017-11-05T09:28:17.736Z,11.4
2017-11-05T09:29:16.619Z,11.4
2017-11-05T09:30:15.765Z,11.4
2017-11-05T09:31:15.143Z,11.5
2017-11-05T09:32:14.289Z,11.5
2017-11-05T09:33:13.427Z,11.5
2017-11-05T09:34:12.833Z,11.5
2017-11-05T09:35:11.986Z,11.6
2017-11-05T09:36:10.763Z,11.6
2017-11-05T09:37:10.047Z,11.6
2017-11-05T09:38:09.066Z,11.6
2017-11-05T09:39:08.214Z,11.6
2017-11-05T09:40:07.226Z,11.6
2017-11-05T09:41:06.512Z,11.7
2017-11-05T09:42:05.797Z,11.7
2017-11-05T09:43:04.685Z,11.7
2017-11-05T09:44:04.212Z,11.7
2017-11-05T09:45:03.370Z,11.8
2017-11-05T09:46:02.518Z,11.8
2017-11-05T09:48:01.049Z,11.9
2017-11-05T09:49:00.062Z,11.9
2017-11-05T09:49:59.081Z,11.9
2017-11-05T09:50:58.506Z,11.9
2017-11-05T09:51:57.658Z,12
2017-11-05T09:52:56.439Z,12
2017-11-05T09:53:27.009Z,12
2017-11-05T09:53:57.738Z,12
2017-11-05T09:54:28.076Z,12
2017-11-05T09:54:58.542Z,12
2017-11-05T09:55:28.892Z,12
2017-11-05T09:56:53.601Z,12.1
2017-11-05T09:57:52.114Z,12.1
2017-11-05T09:58:51.370Z,12.2
2017-11-05T09:59:51.169Z,12.2
2017-11-05T10:00:49.814Z,12.3
2017-11-05T10:01:49.105Z,12.3
2017-11-05T10:02:48.251Z,12.3
2017-11-05T10:03:47.533Z,12.4
2017-11-05T10:04:18.253Z,12.4
2017-11-05T10:04:48.208Z,12.4
2017-11-05T10:05:18.536Z,12.4
2017-11-05T10:05:49.142Z,12.5
2017-11-05T10:06:19.472Z,12.5
2017-11-05T10:07:44.278Z,12.5
2017-11-05T10:08:43.433Z,12.5
2017-11-05T10:09:42.450Z,12.6
2017-11-05T10:10:41.731Z,12.6
2017-11-05T10:11:40.744Z,12.6
2017-11-05T10:12:40.262Z,12.6
2017-11-05T10:13:39.564Z,12.7
2017-11-05T10:14:38.453Z,12.7
2017-11-05T10:15:37.741Z,12.8
2017-11-05T10:16:36.631Z,12.8
2017-11-05T10:17:35.916Z,12.9
2017-11-05T10:18:35.210Z,12.9
2017-11-05T10:19:34.364Z,13
2017-11-05T10:20:33.521Z,13
2017-11-05T10:21:32.405Z,13.1
2017-11-05T10:22:31.928Z,13.1
2017-11-05T10:23:30.670Z,13.1
2017-11-05T10:24:29.951Z,13.2
2017-11-05T10:25:29.464Z,13.2
2017-11-05T10:27:27.486Z,13.3
2017-11-05T10:28:27.003Z,13.3
2017-11-05T10:29:26.282Z,13.3
2017-11-05T10:30:25.065Z,13.3
2017-11-05T10:32:23.600Z,13.3
2017-11-05T10:34:21.730Z,13.3
2017-11-05T10:35:21.385Z,13.4
2017-11-05T10:36:20.266Z,13.4
2017-11-05T10:37:19.547Z,13.4
2017-11-05T10:37:50.012Z,13.4
2017-11-05T10:38:20.231Z,13.4
2017-11-05T10:39:18.141Z,13.4
2017-11-05T10:40:17.059Z,13.5
2017-11-05T10:41:16.350Z,13.5
2017-11-05T10:42:15.510Z,13.5
2017-11-05T10:43:14.809Z,13.5
2017-11-05T10:44:13.721Z,13.5
2017-11-05T10:45:13.143Z,13.5
2017-11-05T10:46:12.033Z,13.5
2017-11-05T10:46:42.495Z,13.5
2017-11-05T10:47:12.955Z,13.5
2017-11-05T10:47:43.414Z,13.5
2017-11-05T10:48:13.876Z,13.5
2017-11-05T10:49:09.639Z,13.6
2017-11-05T10:50:09.162Z,13.6
2017-11-05T10:51:08.569Z,13.6
2017-11-05T10:52:07.081Z,13.6
2017-11-05T10:53:06.873Z,13.6
2017-11-05T10:54:05.885Z,13.6
2017-11-05T10:55:05.038Z,13.7
2017-11-05T10:56:03.935Z,13.7
2017-11-05T10:57:03.353Z,13.7
2017-11-05T10:58:02.374Z,13.6
2017-11-05T10:59:01.520Z,13.6
2017-11-05T11:00:01.166Z,13.6
2017-11-05T11:01:00.449Z,13.6
2017-11-05T11:01:59.603Z,13.6
2017-11-05T11:02:58.378Z,13.6
2017-11-05T11:03:57.648Z,13.5
2017-11-05T11:04:56.939Z,13.5
2017-11-05T11:05:55.957Z,13.5
2017-11-05T11:06:55.613Z,13.5
2017-11-05T11:07:54.631Z,13.5
2017-11-05T11:08:53.778Z,13.5
2017-11-05T11:09:52.661Z,13.5
2017-11-05T11:10:52.056Z,13.4
2017-11-05T11:11:51.566Z,13.4
2017-11-05T11:12:50.723Z,13.4
2017-11-05T11:13:50.025Z,13.4
2017-11-05T11:14:49.315Z,13.4
2017-11-05T11:15:47.824Z,13.4
2017-11-05T11:16:47.474Z,13.4
2017-11-05T11:17:46.631Z,13.4
2017-11-05T11:19:45.021Z,13.4
2017-11-05T11:20:43.900Z,13.4
2017-11-05T11:22:42.450Z,13.4
2017-11-05T11:23:41.590Z,13.4
2017-11-05T11:25:40.124Z,13.4
2017-11-05T11:26:39.393Z,13.5
2017-11-05T11:27:38.414Z,13.5
2017-11-05T11:28:37.830Z,13.5
2017-11-05T11:29:36.844Z,13.5
2017-11-05T11:30:35.893Z,13.6
2017-11-05T11:31:35.278Z,13.6
2017-11-05T11:33:33.678Z,13.6
2017-11-05T11:34:33.060Z,13.6
2017-11-05T11:35:32.211Z,13.6
2017-11-05T11:36:31.362Z,13.6
2017-11-05T11:37:30.511Z,13.6
2017-11-05T11:38:29.660Z,13.6
2017-11-05T11:39:28.807Z,13.6
2017-11-05T11:40:28.460Z,13.6
2017-11-05T11:42:26.362Z,13.6
2017-11-05T11:43:25.883Z,13.5
2017-11-05T11:44:25.032Z,13.5
2017-11-05T11:45:23.908Z,13.5
2017-11-05T11:46:23.294Z,13.5
2017-11-05T11:47:22.944Z,13.5
2017-11-05T11:48:21.733Z,13.5
2017-11-05T11:49:20.881Z,13.5
2017-11-05T11:50:20.038Z,13.5
2017-11-05T11:51:19.825Z,13.5
2017-11-05T11:52:18.483Z,13.5
2017-11-05T11:53:17.763Z,13.5
2017-11-05T11:54:17.064Z,13.5
2017-11-05T11:55:16.099Z,13.4
2017-11-05T11:56:15.248Z,13.4
2017-11-05T11:57:15.029Z,13.4
2017-11-05T11:58:13.935Z,13.4
2017-11-05T11:59:13.217Z,13.4
2017-11-05T12:00:11.968Z,13.4
2017-11-05T12:01:11.613Z,13.4
2017-11-05T12:02:10.889Z,13.5
2017-11-05T12:03:09.934Z,13.5
2017-11-05T12:04:09.054Z,13.5
2017-11-05T12:05:08.210Z,13.5
2017-11-05T12:06:07.231Z,13.5
2017-11-05T12:07:06.760Z,13.5
2017-11-05T12:08:05.646Z,13.5
2017-11-05T12:09:05.319Z,13.5
2017-11-05T12:10:04.465Z,13.5
2017-11-05T12:11:03.616Z,13.5
2017-11-05T12:12:02.760Z,13.5
2017-11-05T12:13:02.045Z,13.5
2017-11-05T12:14:00.943Z,13.5
2017-11-05T12:15:00.088Z,13.5
2017-11-05T12:15:59.873Z,13.5
2017-11-05T12:16:58.654Z,13.6
2017-11-05T12:17:58.211Z,13.6
2017-11-05T12:18:57.222Z,13.6
2017-11-05T12:19:56.483Z,13.6
2017-11-05T12:20:55.493Z,13.6
2017-11-05T12:21:54.508Z,13.6
2017-11-05T12:22:54.161Z,13.6
2017-11-05T12:24:52.322Z,13.6
2017-11-05T12:25:51.717Z,13.6
2017-11-05T12:26:50.869Z,13.6
2017-11-05T12:27:49.881Z,13.6
2017-11-05T12:28:49.135Z,13.6
2017-11-05T12:29:48.659Z,13.6
2017-11-05T12:30:47.949Z,13.6
2017-11-05T12:31:47.101Z,13.6
2017-11-05T12:32:46.246Z,13.6
2017-11-05T12:33:45.693Z,13.6
2017-11-05T12:34:44.203Z,13.6
2017-11-05T12:35:43.733Z,13.6
2017-11-05T12:36:42.754Z,13.6
2017-11-05T12:37:42.026Z,13.6
2017-11-05T12:38:41.308Z,13.6
2017-11-05T12:39:40.191Z,13.6
2017-11-05T12:41:38.727Z,13.6
2017-11-05T12:43:37.129Z,13.6
2017-11-05T12:44:36.911Z,13.6
2017-11-05T12:45:35.927Z,13.7
2017-11-05T12:46:35.346Z,13.6
2017-11-05T12:47:33.989Z,13.6
2017-11-05T12:48:33.631Z,13.6
2017-11-05T12:49:32.911Z,13.6
2017-11-05T12:50:32.064Z,13.6
2017-11-05T12:52:30.343Z,13.6
2017-11-05T12:53:29.748Z,13.6
2017-11-05T12:54:28.764Z,13.6
2017-11-05T12:55:27.914Z,13.5
2017-11-05T12:56:27.072Z,13.5
2017-11-05T12:57:26.082Z,13.5
2017-11-05T12:58:25.874Z,13.5
2017-11-05T12:59:24.536Z,13.5
2017-11-05T13:00:23.692Z,13.5
2017-11-05T13:01:22.981Z,13.5
2017-11-05T13:02:22.509Z,13.5
2017-11-05T13:03:21.649Z,13.4
2017-11-05T13:04:20.685Z,13.4
2017-11-05T13:05:20.202Z,13.4
2017-11-05T13:07:18.602Z,13.4
2017-11-05T13:09:16.497Z,13.3
2017-11-05T13:10:15.931Z,13.3
2017-11-05T13:11:15.317Z,13.3
2017-11-05T13:12:14.631Z,13.3
2017-11-05T13:13:13.766Z,13.2
2017-11-05T13:14:12.620Z,13.2
2017-11-05T13:15:12.147Z,13.2
2017-11-05T13:17:10.820Z,13.1
2017-11-05T13:18:09.981Z,13.1
2017-11-05T13:19:09.021Z,13
2017-11-05T13:20:08.290Z,13
2017-11-05T13:21:07.573Z,13
2017-11-05T13:22:06.488Z,13
2017-11-05T13:23:05.646Z,12.9
2017-11-05T13:24:04.929Z,12.8
2017-11-05T13:25:03.944Z,12.8
2017-11-05T13:26:03.329Z,12.8
2017-11-05T13:28:01.726Z,12.7
2017-11-05T13:29:00.746Z,12.7
2017-11-05T13:30:59.448Z,12.7
2017-11-05T13:32:57.855Z,12.6
2017-11-05T13:33:56.637Z,12.5
2017-11-05T13:34:56.024Z,12.5
2017-11-05T13:35:55.672Z,12.5
2017-11-05T13:36:54.418Z,12.5
2017-11-05T13:37:53.573Z,12.4
2017-11-05T13:38:52.851Z,12.4
2017-11-05T13:39:52.396Z,12.4
2017-11-05T13:40:51.544Z,12.3
2017-11-05T13:44:48.477Z,12.2
2017-11-05T13:46:46.614Z,12.2
2017-11-05T13:47:45.889Z,12.2
2017-11-05T13:49:43.924Z,12.1
2017-11-05T13:50:43.073Z,12
2017-11-05T13:51:42.373Z,12
2017-11-05T13:53:41.039Z,12
2017-11-05T13:54:39.918Z,12
2017-11-05T13:55:39.715Z,11.9
2017-11-05T13:56:38.492Z,11.9
2017-11-05T13:57:37.633Z,11.9
2017-11-05T13:58:36.657Z,11.9
2017-11-05T13:59:36.044Z,11.9
2017-11-05T14:00:35.339Z,11.9
2017-11-05T14:01:34.483Z,11.9
2017-11-05T14:03:33.022Z,11.8
2017-11-05T14:04:31.927Z,11.8
2017-11-05T14:05:31.448Z,11.7
2017-11-05T14:06:30.333Z,11.7
2017-11-05T14:07:29.977Z,11.7
2017-11-05T14:08:28.488Z,11.7
2017-11-05T14:10:27.522Z,11.7
2017-11-05T14:11:26.308Z,11.7
2017-11-05T14:12:25.836Z,11.6
2017-11-05T14:13:24.710Z,11.6
2017-11-05T14:14:23.854Z,11.6
2017-11-05T14:16:22.414Z,11.6
2017-11-05T14:16:53.108Z,11.6
2017-11-05T14:18:20.807Z,11.5
2017-11-05T14:20:19.210Z,11.4
2017-11-05T14:21:18.105Z,11.4
2017-11-05T14:22:17.258Z,11.4
2017-11-05T14:23:16.553Z,11.4
2017-11-05T14:25:15.229Z,11.3
2017-11-05T14:27:13.533Z,11.2
2017-11-05T14:28:12.809Z,11.2
2017-11-05T14:29:11.584Z,11.2
2017-11-05T14:32:09.129Z,10.8
2017-11-05T14:33:08.275Z,10.8
2017-11-05T14:34:07.689Z,10.7
2017-11-05T14:35:06.713Z,10.7
2017-11-05T14:36:06.004Z,10.6
2017-11-05T14:37:05.279Z,10.6
2017-11-05T14:38:04.160Z,10.5
2017-11-05T14:40:02.692Z,10.5
2017-11-05T14:41:01.713Z,10.4
2017-11-05T14:43:59.233Z,10.3
2017-11-05T14:44:58.893Z,10.3
2017-11-05T14:45:58.036Z,10.3
2017-11-05T14:46:56.962Z,10.3
2017-11-05T14:47:56.217Z,10.3
2017-11-05T14:48:55.373Z,10.3
2017-11-05T14:49:54.527Z,10.2
2017-11-05T14:51:52.557Z,10.2
2017-11-05T14:52:51.703Z,10.2
2017-11-05T14:54:50.610Z,10.1
2017-11-05T14:55:49.626Z,10.1
2017-11-05T14:56:48.772Z,10.1
2017-11-05T14:57:47.794Z,10.1
2017-11-05T14:58:18.393Z,10.1
2017-11-05T15:00:45.610Z,10.1
2017-11-05T15:01:44.128Z,10.1
2017-11-05T15:02:43.916Z,10.1
2017-11-05T15:03:42.695Z,10.1
2017-11-05T15:04:41.712Z,10
2017-11-05T15:05:41.230Z,10
2017-11-05T15:06:40.268Z,10
2017-11-05T15:07:39.351Z,10
2017-11-05T15:08:09.820Z,10
2017-11-05T15:09:37.526Z,10
2017-11-05T15:10:36.915Z,10
2017-11-05T15:11:35.805Z,10
2017-11-05T15:12:34.982Z,10
2017-11-05T15:14:33.523Z,10
2017-11-05T15:15:32.675Z,10
2017-11-05T15:16:31.562Z,9.9
2017-11-05T15:17:30.811Z,9.9
2017-11-05T15:18:29.954Z,9.9
2017-11-05T15:19:29.096Z,9.9
2017-11-05T15:20:28.126Z,9.9
2017-11-05T15:21:27.782Z,9.9
2017-11-05T15:22:27.067Z,9.9
2017-11-05T15:23:26.084Z,9.9
2017-11-05T15:24:24.730Z,9.9
2017-11-05T15:25:24.117Z,9.9
2017-11-05T15:26:23.128Z,9.9
2017-11-05T15:27:22.404Z,9.9
2017-11-05T15:29:20.804Z,9.9
2017-11-05T15:30:19.959Z,9.9
2017-11-05T15:31:18.973Z,9.9
2017-11-05T15:33:17.248Z,9.9
2017-11-05T15:35:15.518Z,9.8
2017-11-05T15:36:14.661Z,9.8
2017-11-05T15:37:13.958Z,9.8
2017-11-05T15:38:12.840Z,9.9
2017-11-05T15:41:10.777Z,9.8
2017-11-05T15:43:08.948Z,9.8
2017-11-05T15:45:06.995Z,9.8
2017-11-05T15:46:06.378Z,9.8
2017-11-05T15:47:05.287Z,9.8
2017-11-05T15:48:04.580Z,9.8
2017-11-05T15:50:02.502Z,9.8
2017-11-05T15:51:02.019Z,9.8
2017-11-05T15:53:00.424Z,9.8
2017-11-05T15:53:59.199Z,9.8
2017-11-05T15:55:57.843Z,9.8
2017-11-05T15:56:56.867Z,9.7
2017-11-05T15:57:56.140Z,9.7
2017-11-05T15:58:55.047Z,9.7
2017-11-05T16:00:53.309Z,9.7
2017-11-05T16:01:52.587Z,9.7
2017-11-05T16:02:51.601Z,9.7
2017-11-05T16:03:50.483Z,9.7
2017-11-05T16:05:49.029Z,9.7
2017-11-05T16:07:47.428Z,9.7
2017-11-05T16:08:46.314Z,9.7
2017-11-05T16:09:45.967Z,9.7
2017-11-05T16:10:44.982Z,9.7
2017-11-05T16:11:43.731Z,9.6
2017-11-05T16:12:43.015Z,9.5
2017-11-05T16:14:41.412Z,9.3
2017-11-05T16:15:40.692Z,9.3
2017-11-05T16:16:39.842Z,9.2
2017-11-05T16:17:38.477Z,9.2
2017-11-05T16:18:37.997Z,9.2
2017-11-05T16:19:37.151Z,9.1
2017-11-05T16:20:36.301Z,9.1
2017-11-05T16:21:35.578Z,9.1
2017-11-05T16:22:34.725Z,9.1
2017-11-05T16:23:33.740Z,9
2017-11-05T16:24:33.024Z,9
2017-11-05T16:26:31.060Z,9
2017-11-05T16:27:01.388Z,9
2017-11-05T16:27:31.851Z,9
2017-11-05T16:28:29.226Z,8.9
2017-11-05T16:31:26.644Z,8.9
2017-11-05T16:35:23.328Z,8.8
2017-11-05T16:36:22.350Z,8.8
2017-11-05T16:37:21.871Z,8.8
2017-11-05T16:39:19.771Z,8.8
2017-11-05T16:43:16.198Z,8.8
2017-11-05T16:43:46.658Z,8.8
2017-11-05T16:44:17.264Z,8.7
2017-11-05T16:44:47.721Z,8.7
2017-11-05T16:47:12.920Z,8.8
2017-11-05T16:48:12.077Z,8.7
2017-11-05T16:50:10.117Z,8.7
2017-11-05T16:51:09.266Z,8.8
2017-11-05T16:52:08.017Z,8.7
2017-11-05T16:53:07.331Z,8.7
2017-11-05T16:54:06.569Z,8.7
2017-11-05T16:55:05.842Z,8.7
2017-11-05T16:59:02.302Z,8.7
2017-11-05T17:01:00.601Z,8.6
2017-11-05T17:01:59.381Z,8.7
2017-11-05T17:02:58.404Z,8.6
2017-11-05T17:03:58.194Z,8.6
2017-11-05T17:05:56.497Z,8.6
2017-11-05T17:08:53.677Z,8.5
2017-11-05T17:09:52.435Z,8.6
2017-11-05T17:11:50.838Z,8.5
2017-11-05T17:12:50.145Z,8.5
2017-11-05T17:13:49.450Z,8.5
2017-11-05T17:15:47.247Z,8.5
2017-11-05T17:16:46.255Z,8.5
2017-11-05T17:17:45.915Z,8.5
2017-11-05T17:18:44.564Z,8.4
2017-11-05T17:19:43.715Z,8.4
2017-11-05T17:22:40.900Z,8.4
2017-11-05T17:23:40.054Z,8.4
2017-11-05T17:24:39.199Z,8.3
2017-11-05T17:25:38.215Z,8.3
2017-11-05T17:26:08.811Z,8.3
2017-11-05T17:26:39.407Z,8.3
2017-11-05T17:27:09.737Z,8.3
2017-11-05T17:28:35.704Z,8.3
2017-11-05T17:29:34.986Z,8.3
2017-11-05T17:32:32.272Z,8.3
2017-11-05T17:33:31.427Z,8.3
2017-11-05T17:34:30.564Z,8.3